PWSweather.com
Personal Weather Stations
Station Observations
948974
Valtournenche, AostaIT 11028

ValtournencheAostaIT 11028

Lat: 45.877222, Lon: 7.625556

Elevation: 5085.3018

Station Type: PCE-FWS 20

http://www.cdso.it

High Low Average
Temperature 46.3°F7.9°C 38.7°F3.7°C 43.2°F6.2°C
Dew Point 45.8°F7.7°C 35.7°F2.1°C 42.5°F5.8°C
Winds 4.0 mph 6.4 kmh Calm Calm 2.0 mph NNE3.2 kmh NNE
Wind Gusts 8.0 mph12.9 kmh -- 4.0 mph6.4 kmh
Humidity 99% 87% 97%
Pressure 30.14 in1020.7 mb 29.98 in1015.2 mb -
Precipitation 0.22 in5.6 mm - -
Hour Temp Dew Point Humidity Winds Wind Gusts Pressure Precip Precip Rate Daily Precip Total
12:15 AM 43.5°F6.4°C 43.0°F6.1°C 98% Calm Calm 1.0 mph1.6 kmh 30.14 in1020.7 mb 0.00 in0.0 mm 0.00 in0.0 mm 0.00 in0.0 mm
12:36 AM 43.5°F6.4°C 43.0°F6.1°C 98% Calm Calm 2.0 mph3.2 kmh 30.13 in1020.3 mb 0.00 in0.0 mm 0.00 in0.0 mm 0.00 in0.0 mm
12:57 AM 43.3°F6.3°C 42.8°F6.0°C 98% 2.0 mph 3.2 kmh 3.0 mph4.8 kmh 30.12 in1020.0 mb 0.00 in0.0 mm 0.00 in0.0 mm 0.00 in0.0 mm
01:18 AM 43.3°F6.3°C 42.8°F6.0°C 98% Calm Calm 1.0 mph1.6 kmh 30.12 in1020.0 mb 0.00 in0.0 mm 0.00 in0.0 mm 0.00 in0.0 mm
01:39 AM 43.2°F6.2°C 42.6°F5.9°C 98% 1.0 mph 1.6 kmh 2.0 mph3.2 kmh 30.12 in1020.0 mb 0.00 in0.0 mm 0.00 in0.0 mm 0.00 in0.0 mm
02:00 AM 43.2°F6.2°C 42.6°F5.9°C 98% 1.0 mph 1.6 kmh 2.0 mph3.2 kmh 30.12 in1020.0 mb 0.00 in0.0 mm 0.00 in0.0 mm 0.00 in0.0 mm
02:21 AM 43.3°F6.3°C 42.8°F6.0°C 98% 1.0 mph 1.6 kmh 2.0 mph3.2 kmh 30.11 in1019.6 mb 0.00 in0.0 mm 0.00 in0.0 mm 0.00 in0.0 mm
02:43 AM 43.0°F6.1°C 42.5°F5.8°C 98% 2.0 mph 3.2 kmh 2.0 mph3.2 kmh 30.10 in1019.3 mb 0.00 in0.0 mm 0.00 in0.0 mm 0.00 in0.0 mm
03:04 AM 42.8°F6.0°C 42.3°F5.7°C 98% 1.0 mph 1.6 kmh 2.0 mph3.2 kmh 30.10 in1019.3 mb 0.00 in0.0 mm 0.00 in0.0 mm 0.00 in0.0 mm
03:25 AM 43.0°F6.1°C 42.5°F5.8°C 98% 2.0 mph 3.2 kmh 2.0 mph3.2 kmh 30.09 in1019.0 mb 0.00 in0.0 mm 0.00 in0.0 mm 0.00 in0.0 mm
03:47 AM 43.0°F6.1°C 42.5°F5.8°C 98% Calm Calm 2.0 mph3.2 kmh 30.10 in1019.3 mb 0.00 in0.0 mm 0.00 in0.0 mm 0.00 in0.0 mm
04:08 AM 43.2°F6.2°C 42.6°F5.9°C 98% 1.0 mph 1.6 kmh 2.0 mph3.2 kmh 30.10 in1019.3 mb 0.00 in0.0 mm 0.00 in0.0 mm 0.00 in0.0 mm
04:29 AM 43.3°F6.3°C 42.8°F6.0°C 98% 1.0 mph 1.6 kmh 2.0 mph3.2 kmh 30.10 in1019.3 mb 0.00 in0.0 mm 0.00 in0.0 mm 0.00 in0.0 mm
04:50 AM 43.5°F6.4°C 43.0°F6.1°C 98% 1.0 mph 1.6 kmh 2.0 mph3.2 kmh 30.10 in1019.3 mb 0.00 in0.0 mm 0.00 in0.0 mm 0.00 in0.0 mm
05:11 AM 43.5°F6.4°C 43.0°F6.1°C 98% 2.0 mph 3.2 kmh 3.0 mph4.8 kmh 30.11 in1019.6 mb 0.00 in0.0 mm 0.00 in0.0 mm 0.00 in0.0 mm
05:32 AM 43.3°F6.3°C 42.8°F6.0°C 98% 1.0 mph 1.6 kmh 2.0 mph3.2 kmh 30.09 in1019.0 mb 0.00 in0.0 mm 0.00 in0.0 mm 0.00 in0.0 mm
05:53 AM 43.3°F6.3°C 42.8°F6.0°C 98% 2.0 mph 3.2 kmh 4.0 mph6.4 kmh 30.09 in1019.0 mb 0.00 in0.0 mm 0.00 in0.0 mm 0.00 in0.0 mm
06:14 AM 43.3°F6.3°C 42.8°F6.0°C 98% 1.0 mph 1.6 kmh 2.0 mph3.2 kmh 30.09 in1019.0 mb 0.00 in0.0 mm 0.00 in0.0 mm 0.00 in0.0 mm
06:35 AM 43.3°F6.3°C 42.8°F6.0°C 98% Calm Calm -- 30.08 in1018.6 mb 0.00 in0.0 mm 0.00 in0.0 mm 0.00 in0.0 mm
06:56 AM 43.3°F6.3°C 42.8°F6.0°C 98% 1.0 mph 1.6 kmh 2.0 mph3.2 kmh 30.09 in1019.0 mb 0.00 in0.0 mm 0.00 in0.0 mm 0.00 in0.0 mm
07:17 AM 43.3°F6.3°C 42.8°F6.0°C 98% 3.0 mph 4.8 kmh 4.0 mph6.4 kmh 30.09 in1019.0 mb 0.00 in0.0 mm 0.00 in0.0 mm 0.00 in0.0 mm
07:38 AM 43.3°F6.3°C 42.8°F6.0°C 98% 1.0 mph 1.6 kmh 2.0 mph3.2 kmh 30.10 in1019.3 mb 0.00 in0.0 mm 0.00 in0.0 mm 0.00 in0.0 mm
07:59 AM 43.2°F6.2°C 42.6°F5.9°C 98% 1.0 mph 1.6 kmh 2.0 mph3.2 kmh 30.09 in1019.0 mb 0.00 in0.0 mm 0.00 in0.0 mm 0.00 in0.0 mm
08:20 AM 43.3°F6.3°C 42.8°F6.0°C 98% 2.0 mph WNW3.2 kmh WNW 4.0 mph6.4 kmh 30.08 in1018.6 mb 0.00 in0.0 mm 0.00 in0.0 mm 0.00 in0.0 mm
08:41 AM 43.5°F6.4°C 43.0°F6.1°C 98% 1.0 mph 1.6 kmh 2.0 mph3.2 kmh 30.08 in1018.6 mb 0.00 in0.0 mm 0.00 in0.0 mm 0.00 in0.0 mm
09:02 AM 43.5°F6.4°C 43.0°F6.1°C 98% 1.0 mph 1.6 kmh 2.0 mph3.2 kmh 30.08 in1018.6 mb 0.01 in0.3 mm 0.02 in0.5 mm 0.01 in0.3 mm
09:21 AM 43.5°F6.4°C 43.0°F6.1°C 98% 1.0 mph 1.6 kmh 3.0 mph4.8 kmh 30.07 in1018.3 mb 0.01 in0.3 mm 0.00 in0.0 mm 0.01 in0.3 mm
09:42 AM 43.6°F6.4°C 43.0°F6.1°C 98% 1.0 mph 1.6 kmh 3.0 mph4.8 kmh 30.06 in1017.9 mb 0.01 in0.3 mm 0.00 in0.0 mm 0.01 in0.3 mm
10:21 AM 43.4°F6.3°C 42.9°F6.1°C 98% 4.0 mph 6.4 kmh 8.0 mph12.9 kmh 30.10 in1019.3 mb 0.01 in0.3 mm 0.00 in0.0 mm 0.02 in0.5 mm
10:42 AM 43.5°F6.4°C 43.0°F6.1°C 98% 2.0 mph 3.2 kmh 5.0 mph8.0 kmh 30.10 in1019.3 mb 0.06 in1.5 mm 0.14 in3.6 mm 0.07 in1.8 mm
11:21 AM 45.7°F7.6°C 44.9°F7.2°C 97% 2.0 mph 3.2 kmh 4.0 mph6.4 kmh 30.02 in1016.6 mb 0.05 in1.3 mm 0.00 in0.0 mm 0.07 in1.8 mm
11:42 AM 45.4°F7.4°C 44.6°F7.0°C 97% 2.0 mph NNW3.2 kmh NNW 7.0 mph11.3 kmh 30.01 in1016.3 mb 0.01 in0.3 mm 0.00 in0.0 mm 0.08 in2.0 mm
12:03 PM 44.6°F7.0°C 43.9°F6.6°C 97% 3.0 mph 4.8 kmh 8.0 mph12.9 kmh 30.02 in1016.6 mb 0.05 in1.3 mm 0.06 in1.5 mm 0.12 in3.0 mm
12:21 PM 44.0°F6.7°C 43.5°F6.4°C 98% 3.0 mph 4.8 kmh 5.0 mph8.0 kmh 30.03 in1016.9 mb 0.06 in1.5 mm 0.03 in0.8 mm 0.13 in3.3 mm
12:42 PM 44.1°F6.7°C 43.6°F6.4°C 98% 1.0 mph 1.6 kmh 2.0 mph3.2 kmh 30.02 in1016.6 mb 0.07 in1.8 mm 0.03 in0.8 mm 0.15 in3.8 mm
01:03 PM 44.0°F6.7°C 43.5°F6.4°C 98% 1.0 mph 1.6 kmh 4.0 mph6.4 kmh 30.02 in1016.6 mb 0.04 in1.0 mm 0.00 in0.0 mm 0.15 in3.8 mm
01:21 PM 43.8°F6.6°C 43.3°F6.3°C 98% 2.0 mph 3.2 kmh 5.0 mph8.0 kmh 29.99 in1015.6 mb 0.04 in1.0 mm 0.00 in0.0 mm 0.17 in4.3 mm
01:42 PM 44.0°F6.7°C 43.5°F6.4°C 98% Calm Calm 3.0 mph4.8 kmh 30.00 in1015.9 mb 0.02 in0.5 mm 0.00 in0.0 mm 0.18 in4.6 mm
02:03 PM 44.3°F6.8°C 43.7°F6.5°C 98% 1.0 mph 1.6 kmh 2.0 mph3.2 kmh 30.00 in1015.9 mb 0.06 in1.5 mm 0.06 in1.5 mm 0.21 in5.3 mm
02:21 PM 45.2°F7.3°C 44.4°F6.9°C 97% 2.0 mph 3.2 kmh 4.0 mph6.4 kmh 29.99 in1015.6 mb 0.05 in1.3 mm 0.00 in0.0 mm 0.21 in5.3 mm
02:42 PM 45.8°F7.7°C 44.9°F7.2°C 97% 2.0 mph 3.2 kmh 6.0 mph9.7 kmh 29.98 in1015.2 mb 0.04 in1.0 mm 0.00 in0.0 mm 0.21 in5.3 mm
03:03 PM 45.0°F7.2°C 44.2°F6.8°C 97% 2.0 mph 3.2 kmh 7.0 mph11.3 kmh 30.00 in1015.9 mb 0.00 in0.0 mm 0.00 in0.0 mm 0.21 in5.3 mm
03:21 PM 45.0°F7.2°C 44.2°F6.8°C 97% 2.0 mph 3.2 kmh 5.0 mph8.0 kmh 30.01 in1016.3 mb 0.00 in0.0 mm 0.00 in0.0 mm 0.21 in5.3 mm
03:42 PM 45.2°F7.3°C 44.4°F6.9°C 97% Calm Calm 2.0 mph3.2 kmh 30.01 in1016.3 mb 0.01 in0.3 mm 0.03 in0.8 mm 0.22 in5.6 mm
04:03 PM 45.6°F7.6°C 44.8°F7.1°C 97% 2.0 mph 3.2 kmh 3.0 mph4.8 kmh 30.01 in1016.3 mb 0.01 in0.3 mm 0.00 in0.0 mm 0.22 in5.6 mm
04:21 PM 45.9°F7.7°C 45.1°F7.3°C 97% 1.0 mph 1.6 kmh 3.0 mph4.8 kmh 30.01 in1016.3 mb 0.01 in0.3 mm 0.00 in0.0 mm 0.22 in5.6 mm
04:42 PM 46.3°F7.9°C 45.8°F7.7°C 98% 1.0 mph 1.6 kmh 3.0 mph4.8 kmh 30.00 in1015.9 mb 0.00 in0.0 mm 0.00 in0.0 mm 0.22 in5.6 mm
05:03 PM 46.3°F7.9°C 45.8°F7.7°C 98% 1.0 mph 1.6 kmh 3.0 mph4.8 kmh 30.00 in1015.9 mb 0.00 in0.0 mm 0.00 in0.0 mm 0.22 in5.6 mm
05:21 PM 45.8°F7.7°C 44.9°F7.2°C 97% 1.0 mph 1.6 kmh 3.0 mph4.8 kmh 30.00 in1015.9 mb 0.00 in0.0 mm 0.00 in0.0 mm 0.22 in5.6 mm
05:42 PM 44.6°F7.0°C 43.9°F6.6°C 97% 1.0 mph 1.6 kmh 4.0 mph6.4 kmh 30.02 in1016.6 mb 0.00 in0.0 mm 0.00 in0.0 mm 0.22 in5.6 mm
06:21 PM 42.6°F5.9°C 42.3°F5.7°C 99% 1.0 mph 1.6 kmh 4.0 mph6.4 kmh 30.04 in1017.3 mb 0.00 in0.0 mm 0.00 in0.0 mm 0.22 in5.6 mm
06:42 PM 42.2°F5.7°C 42.0°F5.6°C 99% 2.0 mph 3.2 kmh 6.0 mph9.7 kmh 30.04 in1017.3 mb 0.00 in0.0 mm 0.00 in0.0 mm 0.22 in5.6 mm
07:03 PM 42.2°F5.7°C 42.0°F5.6°C 99% 3.0 mph 4.8 kmh 6.0 mph9.7 kmh 30.05 in1017.6 mb 0.00 in0.0 mm 0.00 in0.0 mm 0.22 in5.6 mm
07:21 PM 41.2°F5.1°C 40.9°F4.9°C 99% 2.0 mph 3.2 kmh 4.0 mph6.4 kmh 30.07 in1018.3 mb 0.00 in0.0 mm 0.00 in0.0 mm 0.22 in5.6 mm
07:42 PM 40.3°F4.6°C 40.0°F4.4°C 99% 2.0 mph 3.2 kmh 6.0 mph9.7 kmh 30.09 in1019.0 mb 0.00 in0.0 mm 0.00 in0.0 mm 0.22 in5.6 mm
08:03 PM 40.4°F4.7°C 40.1°F4.5°C 99% 3.0 mph 4.8 kmh 8.0 mph12.9 kmh 30.09 in1019.0 mb 0.00 in0.0 mm 0.00 in0.0 mm 0.22 in5.6 mm
08:21 PM 40.7°F4.8°C 40.5°F4.7°C 99% 4.0 mph 6.4 kmh 7.0 mph11.3 kmh 30.09 in1019.0 mb 0.00 in0.0 mm 0.00 in0.0 mm 0.22 in5.6 mm
08:42 PM 39.9°F4.4°C 39.5°F4.2°C 98% 2.0 mph 3.2 kmh 6.0 mph9.7 kmh 30.09 in1019.0 mb 0.00 in0.0 mm 0.00 in0.0 mm 0.22 in5.6 mm
09:03 PM 38.8°F3.8°C 38.2°F3.4°C 98% 4.0 mph N6.4 kmh N 8.0 mph12.9 kmh 30.10 in1019.3 mb 0.00 in0.0 mm 0.00 in0.0 mm 0.22 in5.6 mm
09:21 PM 39.0°F3.9°C 37.7°F3.2°C 95% 3.0 mph NE4.8 kmh NE 5.0 mph8.0 kmh 30.10 in1019.3 mb 0.00 in0.0 mm 0.00 in0.0 mm 0.22 in5.6 mm
09:42 PM 38.7°F3.7°C 37.4°F3.0°C 95% 4.0 mph NE6.4 kmh NE 8.0 mph12.9 kmh 30.11 in1019.6 mb 0.00 in0.0 mm 0.00 in0.0 mm 0.22 in5.6 mm
10:03 PM 39.2°F4.0°C 36.5°F2.5°C 90% 4.0 mph E6.4 kmh E 8.0 mph12.9 kmh 30.10 in1019.3 mb 0.00 in0.0 mm 0.00 in0.0 mm 0.22 in5.6 mm
10:21 PM 38.8°F3.8°C 36.2°F2.3°C 90% 3.0 mph E4.8 kmh E 6.0 mph9.7 kmh 30.10 in1019.3 mb 0.00 in0.0 mm 0.00 in0.0 mm 0.22 in5.6 mm
10:42 PM 39.1°F3.9°C 35.7°F2.1°C 87% 4.0 mph E6.4 kmh E 8.0 mph12.9 kmh 30.10 in1019.3 mb 0.00 in0.0 mm 0.00 in0.0 mm 0.22 in5.6 mm
11:03 PM 40.8°F4.9°C 35.1°F1.7°C 80% 4.0 mph E6.4 kmh E 6.0 mph9.7 kmh 30.08 in1018.6 mb 0.00 in0.0 mm 0.00 in0.0 mm 0.17 in4.3 mm
11:24 PM 39.4°F4.1°C 34.7°F1.5°C 83% 4.0 mph E6.4 kmh E 6.0 mph9.7 kmh 30.10 in1019.3 mb 0.00 in0.0 mm 0.00 in0.0 mm 0.17 in4.3 mm
11:45 PM 38.5°F3.6°C 33.8°F1.0°C 83% 1.0 mph E1.6 kmh E 2.0 mph3.2 kmh 30.10 in1019.3 mb 0.00 in0.0 mm 0.00 in0.0 mm 0.17 in4.3 mm